This is the latest recevied weather packets stored in our database for station/object VK5TRM-14. If no packets are shown the sender has not sent any weather packets the latest 10 day(s).
| Time | Temp. | Humidity | Pressure | Rain* | Wind** | Luminosity | Snow |
|---|---|---|---|---|---|---|---|
| 1777851005 | 14.44° C | 70% | 1014.3 hPa | 0.25 mm | - | - | - |
| 1777850105 | 14.44° C | 70% | 1014.3 hPa | 0.25 mm | - | - | - |
| 1777849205 | 13.33° C | 75% | 1014.1 hPa | 0.25 mm | - | - | - |
| 1777848305 | 13.33° C | 75% | 1014.1 hPa | 0.25 mm | - | - | - |
| 1777847405 | 11.67° C | 80% | 1013.9 hPa | 0.25 mm | - | - | - |
| 1777846505 | 11.67° C | 80% | 1013.9 hPa | 0.25 mm | - | - | - |
| 1777845605 | 11.11° C | 82% | 1013.6 hPa | 0.25 mm | - | - | - |
| 1777844705 | 11.11° C | 82% | 1013.6 hPa | 0.25 mm | - | - | - |
| 1777843805 | 11.11° C | 83% | 1013.4 hPa | 0.25 mm | - | - | - |
| 1777842905 | 11.11° C | 83% | 1013.4 hPa | 0.25 mm | - | - | - |
| 1777842005 | 11.11° C | 83% | 1013.2 hPa | 0.25 mm | - | - | - |
| 1777841105 | 11.11° C | 83% | 1013.2 hPa | 0.25 mm | - | - | - |
| 1777840205 | 11.67° C | 82% | 1013.1 hPa | 0.25 mm | - | - | - |
| 1777839305 | 11.67° C | 82% | 1013.1 hPa | 0.25 mm | - | - | - |
| 1777838405 | 11.67° C | 82% | 1013.2 hPa | 0.25 mm | - | - | - |
| 1777837505 | 11.67° C | 82% | 1013.2 hPa | 0.25 mm | - | - | - |
| 1777836606 | 11.67° C | 81% | 1013.1 hPa | 0.25 mm | - | - | - |
| 1777835705 | 11.67° C | 81% | 1013.1 hPa | 0.25 mm | - | - | - |
| 1777834805 | 12.22° C | 79% | 1013 hPa | 0.25 mm | - | - | - |
| 1777833905 | 12.22° C | 79% | 1013 hPa | 0.25 mm | - | - | - |
| 1777833005 | 12.22° C | 80% | 1012.8 hPa | 0.25 mm | - | - | - |
| 1777832105 | 12.22° C | 80% | 1012.8 hPa | 0.25 mm | - | - | - |
| 1777831205 | 12.78° C | 77% | 1012.9 hPa | 0.25 mm | - | - | - |
| 1777830305 | 12.78° C | 77% | 1012.9 hPa | 0.25 mm | - | - | - |
| 1777829405 | 12.78° C | 77% | 1013.1 hPa | 0.25 mm | - | - | - |
* Rain since midnight (hover to see other rain measurements)
** Current wind speed in m/s (hover to see current wind gust speed)